createdAt,value
2018-02-04T00:01:29.410Z,82.48
2018-02-04T00:04:00.197Z,83.25
2018-02-04T00:06:30.980Z,83.53
2018-02-04T00:09:01.772Z,83.27
2018-02-04T00:11:32.521Z,83.36
2018-02-04T00:14:03.277Z,83.25
2018-02-04T00:16:34.053Z,83.10
2018-02-04T00:19:04.845Z,82.73
2018-02-04T00:21:35.604Z,82.60
2018-02-04T00:24:06.344Z,82.50
2018-02-04T00:26:37.088Z,82.80
2018-02-04T00:29:07.872Z,82.14
2018-02-04T00:31:38.619Z,82.34
2018-02-04T00:34:09.373Z,82.23
2018-02-04T00:36:40.125Z,82.94
2018-02-04T00:39:10.893Z,83.26
2018-02-04T00:41:41.657Z,83.09
2018-02-04T00:44:12.409Z,82.95
2018-02-04T00:46:43.245Z,83.49
2018-02-04T00:49:13.996Z,83.48
2018-02-04T00:51:44.732Z,83.78
2018-02-04T00:54:15.464Z,83.75
2018-02-04T00:56:46.238Z,83.94
2018-02-04T00:59:17.031Z,84.11
2018-02-04T01:01:47.800Z,84.25
2018-02-04T01:04:18.547Z,84.51
2018-02-04T01:06:49.341Z,84.73
2018-02-04T01:09:20.092Z,84.58
2018-02-04T01:11:50.862Z,84.82
2018-02-04T01:14:21.637Z,84.73
2018-02-04T01:16:52.403Z,84.42
2018-02-04T01:19:23.224Z,84.71
2018-02-04T01:21:53.969Z,85.13
2018-02-04T01:24:24.708Z,85.34
2018-02-04T01:26:55.473Z,86.22
2018-02-04T01:29:26.232Z,87.31
2018-02-04T01:31:56.996Z,86.82
2018-02-04T01:34:27.740Z,87.01
2018-02-04T01:36:58.544Z,87.08
2018-02-04T01:39:29.281Z,86.57
2018-02-04T01:42:00.078Z,86.79
2018-02-04T01:44:30.817Z,86.62
2018-02-04T01:47:01.573Z,86.35
2018-02-04T01:49:32.317Z,86.26
2018-02-04T01:52:03.083Z,86.28
2018-02-04T01:54:33.844Z,86.38
2018-02-04T01:57:04.623Z,86.51
2018-02-04T01:59:35.368Z,87.23
2018-02-04T02:02:06.096Z,87.03
2018-02-04T02:04:36.849Z,86.95
2018-02-04T02:07:07.637Z,87.37
2018-02-04T02:09:38.391Z,87.24
2018-02-04T02:12:09.157Z,87.35
2018-02-04T02:14:39.912Z,87.33
2018-02-04T02:17:10.709Z,87.58
2018-02-04T02:19:48.365Z,87.77
2018-02-04T02:22:19.179Z,87.86
2018-02-04T02:24:49.957Z,87.64
2018-02-04T02:27:20.744Z,88.22
2018-02-04T02:29:51.573Z,88.41
2018-02-04T02:32:22.372Z,88.40
2018-02-04T02:34:53.133Z,88.08
2018-02-04T02:37:23.990Z,87.79
2018-02-04T02:39:54.744Z,87.78
2018-02-04T02:42:25.517Z,88.09
2018-02-04T02:44:56.263Z,87.77
2018-02-04T02:47:27.153Z,88.27
2018-02-04T02:49:57.977Z,88.14
2018-02-04T02:52:28.767Z,88.36
2018-02-04T02:54:59.553Z,88.53
2018-02-04T02:57:30.343Z,88.69
2018-02-04T03:00:01.122Z,88.81
2018-02-04T03:02:31.897Z,88.72
2018-02-04T03:05:02.673Z,89.32
2018-02-04T03:07:34.543Z,89.40
2018-02-04T03:10:05.360Z,89.12
2018-02-04T03:12:36.146Z,89.20
2018-02-04T03:15:06.893Z,89.11
2018-02-04T03:17:37.670Z,89.45
2018-02-04T03:20:08.450Z,89.73
2018-02-04T03:22:39.232Z,90.15
2018-02-04T03:25:09.995Z,90.59
2018-02-04T03:27:40.824Z,90.58
2018-02-04T03:30:11.605Z,90.28
2018-02-04T03:32:42.392Z,90.24
2018-02-04T03:35:13.152Z,90.17
2018-02-04T03:37:43.925Z,90.09
2018-02-04T03:40:14.668Z,90.07
2018-02-04T03:42:45.451Z,90.41
2018-02-04T03:45:16.226Z,90.60
2018-02-04T03:47:47.006Z,90.91
2018-02-04T03:50:17.752Z,90.70
2018-02-04T03:52:48.538Z,90.38
2018-02-04T03:55:19.293Z,90.74
2018-02-04T03:57:50.077Z,90.73
2018-02-04T04:00:20.851Z,90.93
2018-02-04T04:02:51.632Z,91.33
2018-02-04T04:05:22.404Z,91.37
2018-02-04T04:07:53.166Z,91.61
2018-02-04T04:10:23.915Z,91.95
2018-02-04T04:12:54.708Z,92.02
2018-02-04T04:15:25.453Z,92.06
2018-02-04T04:17:56.217Z,92.15
2018-02-04T04:20:26.953Z,92.14
2018-02-04T04:22:57.712Z,91.67
2018-02-04T04:25:28.456Z,91.87
2018-02-04T04:27:59.381Z,91.73
2018-02-04T04:30:30.165Z,91.70
2018-02-04T04:33:00.925Z,91.69
2018-02-04T04:35:31.676Z,91.97
2018-02-04T04:38:02.419Z,92.30
2018-02-04T04:40:33.159Z,92.51
2018-02-04T04:43:03.924Z,92.40
2018-02-04T04:45:34.658Z,92.59
2018-02-04T04:48:05.425Z,92.55
2018-02-04T04:50:36.186Z,92.69
2018-02-04T04:53:06.940Z,92.83
2018-02-04T04:55:37.753Z,93.02
2018-02-04T04:58:08.520Z,93.02
2018-02-04T05:00:39.278Z,92.88
2018-02-04T05:03:10.063Z,92.76
2018-02-04T05:05:40.831Z,93.02
2018-02-04T05:08:11.626Z,92.85
2018-02-04T05:10:42.377Z,92.49
2018-02-04T05:13:13.144Z,92.37
2018-02-04T05:15:43.912Z,92.51
2018-02-04T05:18:14.747Z,92.41
2018-02-04T05:20:45.508Z,92.37
2018-02-04T05:23:16.271Z,92.43
2018-02-04T05:25:47.012Z,92.14
2018-02-04T05:28:17.785Z,92.20
2018-02-04T05:30:48.560Z,92.30
2018-02-04T05:33:19.337Z,92.94
2018-02-04T05:35:50.106Z,92.99
2018-02-04T05:38:20.874Z,93.25
2018-02-04T05:40:51.644Z,93.34
2018-02-04T05:43:22.408Z,93.41
2018-02-04T05:45:53.232Z,93.60
2018-02-04T05:48:24.029Z,93.86
2018-02-04T05:50:54.808Z,93.70
2018-02-04T05:53:25.616Z,93.76
2018-02-04T05:55:56.411Z,94.03
2018-02-04T05:58:27.193Z,94.10
2018-02-04T06:00:57.953Z,94.27
2018-02-04T06:03:28.725Z,94.44
2018-02-04T06:05:59.480Z,94.65
2018-02-04T06:08:30.258Z,94.72
2018-02-04T06:11:01.072Z,94.71
2018-02-04T06:13:31.850Z,94.73
2018-02-04T06:16:02.593Z,94.62
2018-02-04T06:18:33.336Z,94.37
2018-02-04T06:21:04.107Z,94.32
2018-02-04T06:23:34.898Z,94.39
2018-02-04T06:26:05.660Z,94.67
2018-02-04T06:28:36.437Z,94.54
2018-02-04T06:31:07.184Z,94.64
2018-02-04T06:33:38.021Z,94.91
2018-02-04T06:36:08.771Z,95.02
2018-02-04T06:38:39.520Z,94.92
2018-02-04T06:41:10.277Z,95.02
2018-02-04T06:43:41.052Z,95.19
2018-02-04T06:48:49.353Z,95.35
2018-02-04T06:51:20.091Z,95.39
2018-02-04T06:53:50.982Z,95.54
2018-02-04T06:56:21.746Z,95.47
2018-02-04T06:58:52.520Z,95.29
2018-02-04T07:01:23.287Z,95.10
2018-02-04T07:03:54.135Z,95.18
2018-02-04T07:06:24.906Z,95.31
2018-02-04T07:08:55.676Z,95.40
2018-02-04T07:11:26.430Z,95.45
2018-02-04T07:13:57.310Z,95.00
2018-02-04T07:16:28.084Z,94.33
2018-02-04T07:18:58.866Z,93.97
2018-02-04T07:21:29.699Z,93.94
2018-02-04T07:24:00.478Z,93.53
2018-02-04T07:26:31.216Z,93.12
2018-02-04T07:29:09.013Z,92.30
2018-02-04T07:31:39.756Z,92.19
2018-02-04T07:34:10.532Z,92.08
2018-02-04T07:36:41.281Z,91.07
2018-02-04T07:39:12.064Z,91.01
2018-02-04T07:41:42.843Z,91.33
2018-02-04T07:44:14.345Z,90.87
2018-02-04T07:46:45.136Z,89.83
2018-02-04T07:49:15.917Z,89.71
2018-02-04T07:51:46.664Z,89.28
2018-02-04T07:54:17.445Z,88.85
2018-02-04T07:56:48.224Z,89.47
2018-02-04T07:59:19.047Z,89.32
2018-02-04T08:01:49.865Z,88.85
2018-02-04T08:04:20.656Z,89.04
2018-02-04T08:06:51.420Z,89.63
2018-02-04T08:09:22.217Z,89.44
2018-02-04T08:11:52.979Z,89.11
2018-02-04T08:14:23.837Z,89.27
2018-02-04T08:16:54.618Z,89.21
2018-02-04T08:19:25.407Z,88.61
2018-02-04T08:21:56.194Z,88.75
2018-02-04T08:24:27.001Z,88.72
2018-02-04T08:26:57.801Z,88.59
2018-02-04T08:29:28.666Z,88.16
2018-02-04T08:31:59.474Z,87.39
2018-02-04T08:34:30.260Z,87.84
2018-02-04T08:37:01.043Z,87.83
2018-02-04T08:39:31.862Z,87.66
2018-02-04T08:57:20.395Z,87.97
2018-02-04T08:59:51.155Z,88.52
2018-02-04T09:02:21.945Z,87.16
2018-02-04T09:04:52.721Z,86.81
2018-02-04T09:07:23.500Z,86.66
2018-02-04T09:09:54.252Z,86.10
2018-02-04T09:12:25.069Z,86.50
2018-02-04T09:14:55.808Z,86.06
2018-02-04T09:17:26.576Z,85.94
2018-02-04T09:19:57.312Z,85.83
2018-02-04T09:22:28.210Z,85.88
2018-02-04T09:24:59.020Z,85.85
2018-02-04T09:27:29.884Z,85.30
2018-02-04T09:30:00.661Z,86.22
2018-02-04T09:32:31.546Z,86.28
2018-02-04T09:35:02.351Z,86.47
2018-02-04T09:37:33.239Z,86.79
2018-02-04T09:40:05.112Z,86.54
2018-02-04T09:42:36.908Z,86.57
2018-02-04T09:45:07.672Z,86.63
2018-02-04T09:47:38.592Z,85.79
2018-02-04T09:50:09.376Z,86.22
2018-02-04T09:52:40.151Z,85.16
2018-02-04T09:55:10.961Z,85.13
2018-02-04T09:57:41.750Z,84.18
2018-02-04T10:00:12.495Z,84.46
2018-02-04T10:02:43.325Z,84.12
2018-02-04T10:05:14.088Z,83.79
2018-02-04T10:07:44.844Z,84.53
2018-02-04T10:10:15.574Z,84.53
2018-02-04T10:12:46.347Z,84.23
2018-02-04T10:15:17.097Z,83.20
2018-02-04T10:17:47.872Z,82.36
2018-02-04T10:20:18.616Z,82.22
2018-02-04T10:22:49.367Z,80.57
2018-02-04T10:25:20.127Z,80.01
2018-02-04T10:27:50.877Z,81.40
2018-02-04T10:30:21.644Z,80.89
2018-02-04T10:32:52.396Z,80.23
2018-02-04T10:35:23.149Z,78.86
2018-02-04T10:37:53.887Z,79.70
2018-02-04T10:40:24.656Z,80.21
2018-02-04T10:42:55.438Z,80.27
2018-02-04T10:45:26.200Z,78.75
2018-02-04T10:47:56.962Z,77.37
2018-02-04T10:50:27.724Z,79.06
2018-02-04T10:52:58.500Z,78.15
2018-02-04T10:55:29.253Z,78.16
2018-02-04T10:58:00.027Z,78.87
2018-02-04T11:00:30.804Z,78.75
2018-02-04T11:03:01.560Z,78.82
2018-02-04T11:05:32.308Z,76.95
2018-02-04T11:08:03.081Z,77.99
2018-02-04T11:10:33.872Z,77.57
2018-02-04T11:13:04.669Z,79.92
2018-02-04T11:15:35.460Z,79.52
2018-02-04T11:18:06.244Z,79.40
2018-02-04T11:20:37.055Z,79.57
2018-02-04T11:23:07.848Z,80.13
2018-02-04T11:25:39.652Z,79.37
2018-02-04T11:28:10.417Z,81.03
2018-02-04T11:30:41.198Z,82.28
2018-02-04T11:33:11.968Z,81.07
2018-02-04T11:35:42.736Z,81.77
2018-02-04T11:38:13.520Z,81.20
2018-02-04T11:40:44.296Z,79.29
2018-02-04T11:43:15.044Z,81.71
2018-02-04T11:45:45.832Z,83.42
2018-02-04T11:48:16.605Z,83.35
2018-02-04T11:50:47.424Z,82.46
2018-02-04T11:53:18.273Z,81.63
2018-02-04T11:55:49.068Z,81.54
2018-02-04T11:58:19.830Z,81.51
2018-02-04T12:00:50.640Z,81.22
2018-02-04T12:03:21.429Z,81.44
2018-02-04T12:05:52.224Z,81.72
2018-02-04T12:08:22.999Z,81.27
2018-02-04T12:10:53.771Z,80.02
2018-02-04T12:13:26.513Z,78.35
2018-02-04T12:15:57.280Z,76.01
2018-02-04T12:18:28.021Z,75.29
2018-02-04T12:20:58.784Z,73.77
2018-02-04T12:23:29.558Z,73.09
2018-02-04T12:26:00.335Z,72.92
2018-02-04T12:28:31.096Z,70.73
2018-02-04T12:31:01.857Z,70.05
2018-02-04T12:33:32.613Z,70.23
2018-02-04T12:36:03.383Z,70.52
2018-02-04T12:38:34.120Z,69.34
2018-02-04T12:41:04.937Z,70.09
2018-02-04T12:43:35.705Z,71.01
2018-02-04T12:46:06.470Z,73.25
2018-02-04T12:48:37.216Z,72.09
2018-02-04T12:51:08.013Z,71.87
2018-02-04T12:53:38.809Z,72.53
2018-02-04T12:56:09.664Z,70.97
2018-02-04T12:58:40.399Z,70.23
2018-02-04T13:04:09.309Z,72.40
2018-02-04T13:06:40.130Z,72.36
2018-02-04T13:09:12.932Z,72.43
2018-02-04T13:11:43.699Z,70.71
2018-02-04T13:14:14.430Z,71.85
2018-02-04T13:16:45.232Z,71.71
2018-02-04T13:19:16.007Z,73.79
2018-02-04T13:21:46.833Z,74.00
2018-02-04T13:24:17.584Z,74.07
2018-02-04T13:26:48.358Z,73.48
2018-02-04T13:29:19.119Z,74.85
2018-02-04T13:31:49.884Z,75.48
2018-02-04T13:34:20.725Z,74.44
2018-02-04T13:36:51.476Z,74.47
2018-02-04T13:39:22.256Z,74.69
2018-02-04T13:41:53.027Z,75.87
2018-02-04T13:44:23.785Z,75.67
2018-02-04T13:46:54.556Z,76.86
2018-02-04T13:49:25.314Z,76.79
2018-02-04T13:51:56.096Z,74.48
2018-02-04T13:54:27.148Z,75.82
2018-02-04T13:56:57.976Z,76.16
2018-02-04T13:59:28.740Z,74.46
2018-02-04T14:01:59.489Z,72.31
2018-02-04T14:04:30.244Z,69.98
2018-02-04T14:07:01.121Z,72.00
2018-02-04T14:09:31.869Z,73.89
2018-02-04T14:12:02.667Z,75.59
2018-02-04T14:14:33.523Z,73.56
2018-02-04T14:17:04.363Z,70.79
2018-02-04T14:19:35.113Z,67.70
2018-02-04T14:22:05.893Z,68.98
2018-02-04T14:24:36.652Z,69.19
2018-02-04T14:27:07.440Z,71.61
2018-02-04T14:29:38.195Z,70.97
2018-02-04T14:32:09.044Z,71.30
2018-02-04T14:34:39.793Z,72.42
2018-02-04T14:37:10.581Z,72.66
2018-02-04T14:39:43.333Z,72.73
2018-02-04T14:42:14.144Z,73.71
2018-02-04T14:44:44.928Z,74.43
2018-02-04T14:47:15.689Z,75.02
2018-02-04T14:49:46.438Z,75.52
2018-02-04T14:52:17.240Z,77.50
2018-02-04T14:54:47.974Z,77.74
2018-02-04T14:57:18.732Z,78.56
2018-02-04T14:59:49.500Z,79.48
2018-02-04T15:02:20.261Z,78.03
2018-02-04T15:04:51.022Z,77.85
2018-02-04T15:07:21.816Z,78.74
2018-02-04T15:09:52.597Z,78.05
2018-02-04T15:12:23.416Z,79.05
2018-02-04T15:14:54.184Z,78.49
2018-02-04T15:17:24.933Z,79.88
2018-02-04T15:19:55.717Z,79.16
2018-02-04T15:22:26.488Z,79.93
2018-02-04T15:24:57.267Z,78.98
2018-02-04T15:27:28.044Z,78.59
2018-02-04T15:29:58.803Z,79.96
2018-02-04T15:32:29.576Z,80.84
2018-02-04T15:35:01.352Z,79.90
2018-02-04T15:37:32.105Z,80.67
2018-02-04T15:40:02.946Z,82.08
2018-02-04T15:42:33.704Z,82.38
2018-02-04T15:45:04.470Z,82.08
2018-02-04T15:47:35.253Z,82.37
2018-02-04T15:50:06.159Z,81.54
2018-02-04T15:52:36.891Z,82.10
2018-02-04T15:55:08.692Z,82.40
2018-02-04T15:57:40.515Z,82.83
2018-02-04T16:00:11.281Z,83.45
2018-02-04T16:02:42.045Z,85.25
2018-02-04T16:05:13.017Z,85.78
2018-02-04T16:07:43.841Z,85.93
2018-02-04T16:10:14.617Z,86.58
2018-02-04T16:12:45.342Z,86.34
2018-02-04T16:15:16.124Z,86.54
2018-02-04T16:17:46.975Z,87.21
2018-02-04T16:20:17.731Z,87.63
2018-02-04T16:22:55.547Z,87.74
2018-02-04T16:25:26.355Z,88.33
2018-02-04T16:27:57.092Z,88.84
2018-02-04T16:30:27.853Z,88.87
2018-02-04T16:32:58.651Z,89.35
2018-02-04T16:50:54.806Z,92.32
2018-02-04T16:53:25.570Z,92.54
2018-02-04T16:55:56.393Z,92.93
2018-02-04T16:58:27.149Z,93.08
2018-02-04T17:00:57.900Z,93.24
2018-02-04T17:03:28.650Z,93.33
2018-02-04T17:06:00.620Z,93.39
2018-02-04T17:08:31.409Z,93.32
2018-02-04T17:11:02.272Z,93.48
2018-02-04T17:13:32.999Z,93.61
2018-02-04T17:16:03.804Z,93.99
2018-02-04T17:18:34.602Z,93.96
2018-02-04T17:21:05.429Z,93.99
2018-02-04T17:23:36.241Z,94.05
2018-02-04T17:26:14.142Z,93.89
2018-02-04T17:28:44.915Z,93.96
2018-02-04T17:31:15.689Z,93.69
2018-02-04T17:33:46.452Z,93.54
2018-02-04T17:36:19.250Z,93.40
2018-02-04T17:38:50.045Z,93.15
2018-02-04T17:41:20.837Z,93.16
2018-02-04T17:43:51.621Z,93.21
2018-02-04T17:46:22.428Z,93.33
2018-02-04T17:48:53.206Z,93.34
2018-02-04T17:51:24.003Z,93.45
2018-02-04T17:53:56.789Z,93.51
2018-02-04T17:56:27.666Z,93.62
2018-02-04T17:58:58.450Z,93.97
2018-02-04T18:01:29.252Z,94.16
2018-02-04T18:04:00.088Z,94.29
2018-02-04T18:06:30.876Z,94.25
2018-02-04T18:09:01.618Z,94.30
2018-02-04T18:11:32.431Z,94.50
2018-02-04T18:14:04.198Z,94.54
2018-02-04T18:16:35.020Z,94.68
2018-02-04T18:19:05.773Z,94.53
2018-02-04T18:21:36.579Z,94.73
2018-02-04T18:24:07.349Z,94.87
2018-02-04T18:26:38.229Z,94.95
2018-02-04T18:29:09.028Z,95.05
2018-02-04T18:31:39.868Z,95.11
2018-02-04T18:34:10.660Z,95.18
2018-02-04T18:36:41.479Z,95.25
2018-02-04T18:39:12.236Z,95.13
2018-02-04T18:41:43.092Z,95.00
2018-02-04T18:44:13.867Z,95.12
2018-02-04T18:46:44.724Z,95.18
2018-02-04T18:49:15.524Z,95.05
2018-02-04T18:51:46.329Z,94.94
2018-02-04T18:54:17.124Z,94.82
2018-02-04T18:56:47.904Z,94.79
2018-02-04T18:59:18.668Z,94.82
2018-02-04T19:01:49.432Z,94.86
2018-02-04T19:04:20.222Z,94.93
2018-02-04T19:06:51.043Z,94.88
2018-02-04T19:09:22.864Z,95.12
2018-02-04T19:11:53.742Z,95.32
2018-02-04T19:14:24.540Z,95.20
2018-02-04T19:16:55.310Z,95.16
2018-02-04T19:19:26.072Z,95.08
2018-02-04T19:22:03.876Z,95.25
2018-02-04T19:24:34.684Z,95.22
2018-02-04T19:27:05.423Z,95.24
2018-02-04T19:29:36.240Z,95.46
2018-02-04T19:32:07.025Z,95.50
2018-02-04T19:34:41.369Z,95.49
2018-02-04T19:37:12.175Z,95.53
2018-02-04T19:39:42.943Z,95.58
2018-02-04T19:42:13.730Z,95.48
2018-02-04T19:44:44.516Z,95.51
2018-02-04T19:47:15.313Z,95.50
2018-02-04T19:49:46.096Z,95.48
2018-02-04T19:52:17.963Z,95.49
2018-02-04T19:54:48.740Z,95.45
2018-02-04T19:57:19.556Z,95.48
2018-02-04T19:59:50.320Z,95.37
2018-02-04T20:02:21.127Z,95.37
2018-02-04T20:04:51.876Z,95.34
2018-02-04T20:07:22.700Z,95.45
2018-02-04T20:09:53.571Z,95.50
2018-02-04T20:12:24.355Z,95.50
2018-02-04T20:14:58.356Z,95.64
2018-02-04T20:17:29.166Z,95.56
2018-02-04T20:19:59.924Z,95.56
2018-02-04T20:22:30.697Z,95.75
2018-02-04T20:25:01.444Z,95.83
2018-02-04T20:27:32.244Z,95.81
2018-02-04T20:30:03.108Z,96.12
2018-02-04T20:32:53.162Z,96.05
2018-02-04T20:35:23.962Z,96.06
2018-02-04T20:37:54.815Z,95.90
2018-02-04T20:40:25.623Z,95.94
2018-02-04T20:43:14.912Z,95.99
2018-02-04T20:45:45.692Z,96.13
2018-02-04T20:48:23.305Z,96.23
2018-02-04T20:50:54.077Z,96.19
2018-02-04T20:53:24.882Z,96.25
2018-02-04T20:55:55.703Z,96.25
2018-02-04T20:58:26.566Z,96.26
2018-02-04T21:00:57.443Z,96.43
2018-02-04T21:03:28.217Z,96.03
2018-02-04T21:05:59.051Z,95.40
2018-02-04T21:08:29.868Z,95.10
2018-02-04T21:11:00.666Z,94.93
2018-02-04T21:13:33.472Z,94.86
2018-02-04T21:16:04.244Z,94.89
2018-02-04T21:18:35.057Z,94.90
2018-02-04T21:21:05.793Z,95.20
2018-02-04T21:23:36.572Z,95.26
2018-02-04T21:26:07.361Z,95.30
2018-02-04T21:28:38.195Z,95.29
2018-02-04T21:31:09.013Z,95.37
2018-02-04T21:33:39.833Z,95.26
2018-02-04T21:36:10.749Z,95.27
2018-02-04T21:38:41.512Z,95.14
2018-02-04T21:41:12.319Z,95.05
2018-02-04T21:43:44.105Z,95.13
2018-02-04T21:46:15.000Z,95.24
2018-02-04T21:48:45.771Z,95.28
2018-02-04T21:51:16.580Z,95.34
2018-02-04T21:53:48.387Z,95.44
2018-02-04T21:56:19.277Z,95.44
2018-02-04T21:58:50.071Z,95.51
2018-02-04T22:01:20.884Z,95.57
2018-02-04T22:03:51.777Z,95.60
2018-02-04T22:06:22.528Z,95.52
2018-02-04T22:08:53.336Z,95.24
2018-02-04T22:11:24.125Z,95.03
2018-02-04T22:13:54.943Z,94.65
2018-02-04T22:16:25.764Z,94.18
2018-02-04T22:19:10.072Z,94.22
2018-02-04T22:21:40.871Z,94.01
2018-02-04T22:24:11.673Z,94.04
2018-02-04T22:26:42.476Z,94.13
2018-02-04T22:29:13.290Z,94.11
2018-02-04T22:31:44.070Z,94.23
2018-02-04T22:34:14.885Z,94.13
2018-02-04T22:36:45.651Z,94.04
2018-02-04T22:39:16.440Z,93.99
2018-02-04T22:41:47.180Z,94.13
2018-02-04T22:44:17.939Z,94.16
2018-02-04T22:46:48.708Z,94.37
2018-02-04T22:49:19.493Z,94.35
2018-02-04T22:51:50.305Z,94.39
2018-02-04T22:54:21.124Z,94.51
2018-02-04T22:56:51.894Z,94.64
2018-02-04T22:59:22.749Z,94.77
2018-02-04T23:01:53.540Z,94.76
2018-02-04T23:04:24.308Z,94.89
2018-02-04T23:06:55.065Z,94.99
2018-02-04T23:09:25.956Z,95.30
2018-02-04T23:11:56.693Z,95.41
2018-02-04T23:14:27.452Z,95.42
2018-02-04T23:16:58.211Z,95.32
2018-02-04T23:19:29.005Z,94.83
2018-02-04T23:21:59.744Z,94.57
2018-02-04T23:24:30.592Z,94.72
2018-02-04T23:27:01.368Z,94.55
2018-02-04T23:29:32.144Z,94.52
2018-02-04T23:32:02.901Z,94.49
2018-02-04T23:34:33.680Z,94.63
2018-02-04T23:37:04.435Z,94.53
2018-02-04T23:39:35.205Z,94.51
2018-02-04T23:42:05.967Z,94.42
2018-02-04T23:44:36.708Z,94.44
2018-02-04T23:47:07.432Z,94.42
2018-02-04T23:49:38.180Z,94.31
2018-02-04T23:52:08.936Z,94.27
2018-02-04T23:54:39.696Z,94.14
2018-02-04T23:57:10.436Z,94.20
2018-02-04T23:59:41.223Z,94.22
